Tiempo atmosférico en la estación meteorológica de Ronda Instituto, Málaga (760 m.)



Fecha
DESCASC
Temp. máxima en grados centígrados (hora)
DESCASC
Temp. mínima en grados centígrados (hora)
DESCASC
Temp. media en grados centígrados
DESCASC
Racha de viento máxima en m/sg (hora)
DESCASC
Velocidad máxima media en intervalos de 10 minutos(hora)
DESCASC
Precipitaciones diarias en mm
DESCASC
Precipitaciones de 00:00 a 06:00 en mm
DESCASC
Precipitaciones de 06:00 a 12:00 en mm
DESCASC
Precipitaciones de 12:00 a 18:00 en mm
DESCASC
Precipitaciones de 18:00 a 24:00 en mm
DESCASC
05-04-2020 18 (15:50) 9.9 (05:20) 13.9 -- (--) -- (--) 0 0 0 0 0
04-04-2020 12.9 (12:30) 9.1 (04:20) 11 -- (--) -- (--) 0 0 0 0 0
03-04-2020 16.8 (15:20) 5.8 (07:40) 11.3 -- (--) -- (--) 0 0 0 0 0
02-04-2020 10.6 (18:20) 4.2 (00:00) 7.4 -- (--) -- (--) 8.6 1.4 7 0.2 0
01-04-2020 13.6 (15:10) 7.1 (00:00) 10.4 -- (--) -- (--) 0.4 0.2 0 0 0.2
31-03-2020 14.4 (15:10) 8.5 (00:00) 11.4 -- (--) -- (--) 27.2 12.6 5.4 6.6 2.6
30-03-2020 15.5 (15:10) 7.7 (00:00) 11.6 -- (--) -- (--) 0 0 0 0 0
29-03-2020 15.7 (13:20) 5.6 (00:00) 10.6 -- (--) -- (--) 0 0 0 0 0
28-03-2020 15 (12:30) 5.8 (00:00) 10.4 -- (--) -- (--) 0 0 0 0 0
27-03-2020 15.6 (16:20) 5.7 (00:00) 10.7 -- (--) -- (--) 0 0 0 0 0
26-03-2020 16.5 (14:10) 6.4 (00:00) 11.5 -- (--) -- (--) 0.2 0.2 0 0 0
25-03-2020 12.4 (18:00) 7.1 (00:00) 9.7 -- (--) -- (--) 6.2 3.2 2.8 0.2 0
24-03-2020 12.1 (17:20) 6.4 (00:00) 9.3 -- (--) -- (--) 10 0.2 5.6 2.6 1.6
23-03-2020 13.5 (16:20) 3.6 (00:00) 8.5 -- (--) -- (--) 0.8 0 0.2 0 0.6
22-03-2020 12.5 (16:10) 4.5 (07:50) 8.5 -- (--) -- (--) 3.6 1.4 0.2 2 0
21-03-2020 11.2 (12:40) 6.4 (00:00) 8.8 -- (--) -- (--) 24.8 15.6 0.2 8 1
20-03-2020 14.2 (16:50) 9.1 (00:00) 11.7 -- (--) -- (--) 0 0 0 0 0
19-03-2020 14 (12:50) 10.1 (00:00) 12.1 -- (--) -- (--) 0 0 0 0 0
18-03-2020 17 (16:20) 11.1 (00:00) 14.1 -- (--) -- (--) 0.2 0 0.2 0 0
17-03-2020 12.9 (15:40) 3.1 (00:00) 8 -- (--) -- (--) 5.4 1 4.2 0.2 0
16-03-2020 11.4 (16:10) 5.4 (00:00) 8.4 -- (--) -- (--) 0.2 0.2 0 0 0
15-03-2020 20.6 (15:20) 9.3 (00:00) 15 -- (--) -- (--) 0 0 0 0 0
14-03-2020 22 (14:20) 9.2 (00:00) 15.6 -- (--) -- (--) 0 0 0 0 0
13-03-2020 22 (14:30) 11.4 (08:10) 16.7 -- (--) -- (--) 0 0 0 0 0
12-03-2020 26.5 (15:00) 14.6 (00:00) 20.6 -- (--) -- (--) 0 0 0 0 0
11-03-2020 25.9 (14:30) 11.3 (00:00) 18.6 -- (--) -- (--) 0 0 0 0 0
10-03-2020 24 (16:30) 10.7 (00:00) 17.3 -- (--) -- (--) 0 0 0 0 0
09-03-2020 20.8 (16:10) 8.1 (00:00) 14.4 -- (--) -- (--) 0 0 0 0 0

Gráficas

Temp. máximas Temp. mínimas Temp. medias Precipitaciones Rachas de viento máximas Velocidades máximas media en intervalos de 10 minutos

Datos horarios

Fecha y hora oficial Temperatura (ºC) Velocidad del viento (km/h) Dirección del viento Racha (km/h) Dirección de racha Precipitación (mm) Presión (hPa) Tendencia (hPa) Humedad (%)
2020-04-07 23:00:00 13.5 2 Nordeste -- -- 0 -- -- 84
2020-04-07 22:00:00 14.3 0 Calma -- -- 0 -- -- 82
2020-04-07 21:00:00 15.4 0 Calma -- -- 0 -- -- 78
2020-04-07 20:00:00 16.4 3 Oeste -- -- 0 -- -- 74
2020-04-07 19:00:00 18.2 5 Oeste -- -- 0 -- -- 67
2020-04-07 18:00:00 19.5 8 Noroeste -- -- 0 -- -- 64
2020-04-07 17:00:00 19.9 9 Oeste -- -- 0 -- -- 61
2020-04-07 16:00:00 19.6 5 Sudoeste -- -- 0 -- -- 62
2020-04-07 15:00:00 18.2 4 Sudoeste -- -- 0 -- -- 66
2020-04-07 14:00:00 17.3 3 Sudoeste -- -- 0 -- -- 69
2020-04-07 13:00:00 16.4 6 Oeste -- -- 0 -- -- 71
2020-04-07 12:00:00 16.2 5 Noroeste -- -- 0 -- -- 72
2020-04-07 11:00:00 14.3 0 Calma -- -- 0 -- -- 81
2020-04-07 10:00:00 12.3 0 Calma -- -- 0 -- -- 88
2020-04-07 09:00:00 9.9 0 Calma -- -- 0 -- -- 95
2020-04-07 08:00:00 9.7 0 Calma -- -- 0 -- -- 96
2020-04-07 07:00:00 9.7 0 Calma -- -- 0 -- -- 96
2020-04-07 06:00:00 9.7 2 Sudoeste -- -- 0 -- -- 96
2020-04-07 05:00:00 10 0 Calma -- -- 0 -- -- 96
2020-04-07 04:00:00 10.3 0 Calma -- -- 0 -- -- 96
2020-04-07 03:00:00 10.2 0 Calma -- -- 0 -- -- 96
2020-04-07 02:00:00 10.7 0 Calma -- -- 0 -- -- 95
2020-04-07 01:00:00 10.8 0 Calma -- -- 0 -- -- 95
2020-04-07 00:00:00 11.5 3 Este -- -- 0 -- -- 92
2020-04-06 23:00:00 12.6 0 Calma -- -- 0 -- -- 88
2020-04-06 22:00:00 14 0 Calma -- -- 0 -- -- 81
2020-04-06 21:00:00 14.9 0 Calma -- -- 0 -- -- 77
2020-04-06 20:00:00 16.6 3 Sur -- -- 0 -- -- 70
2020-04-06 19:00:00 17.9 4 Oeste -- -- 0 -- -- 68
2020-04-06 18:00:00 18.4 5 Noroeste -- -- 0 -- -- 66
2020-04-06 17:00:00 18.4 5 Noroeste -- -- 0 -- -- 67
2020-04-06 16:00:00 18.1 5 Norte -- -- 0 -- -- 69
2020-04-06 15:00:00 15.9 4 Oeste -- -- 0 -- -- 74
2020-04-06 14:00:00 15.7 7 Sur -- -- 0 -- -- 72
2020-04-06 13:00:00 16.2 4 Sudoeste -- -- 0 -- -- 70
2020-04-06 12:00:00 15.2 3 Sudoeste -- -- 0 -- -- 72
2020-04-06 11:00:00 13.1 3 Sudoeste -- -- 0 -- -- 74
2020-04-06 10:00:00 11.5 0 Calma -- -- 0 -- -- 80
2020-04-06 09:00:00 10.3 0 Calma -- -- 0 -- -- 77
2020-04-06 08:00:00 9.9 0 Calma -- -- 0 -- -- 72
2020-04-06 07:00:00 9.9 2 Norte -- -- 0 -- -- 73
2020-04-06 06:00:00 9.4 0 Calma -- -- 0 -- -- 76
2020-04-06 05:00:00 8.8 0 Calma -- -- 0 -- -- 77
2020-04-06 04:00:00 9.4 2 Este -- -- 0 -- -- 71
2020-04-06 03:00:00 9.6 3 Este -- -- 0 -- -- 70
2020-04-06 02:00:00 9.9 0 Calma -- -- 0 -- -- 78
2020-04-06 01:00:00 10 0 Calma -- -- 0 -- -- 89
2020-04-06 00:00:00 11 0 Calma -- -- 0 -- -- 83
2020-04-05 23:00:00 11.1 0 Calma -- -- 0 -- -- 85
2020-04-05 22:00:00 11.8 0 Calma -- -- 0 -- -- 80
2020-04-05 21:00:00 12.9 0 Calma -- -- 0 -- -- 80
2020-04-05 20:00:00 13.8 0 Calma -- -- 0 -- -- 78
2020-04-05 19:00:00 15.2 3 Sudoeste -- -- 0 -- -- 71
2020-04-05 18:00:00 16.2 9 Sur -- -- 0 -- -- 67
2020-04-05 17:00:00 17 12 Sur -- -- 0 -- -- 61
2020-04-05 16:00:00 18 11 Sur -- -- 0 -- -- 59
2020-04-05 15:00:00 17.3 12 Sur -- -- 0 -- -- 59
2020-04-05 14:00:00 17 11 Sur -- -- 0 -- -- 60
2020-04-05 13:00:00 16.1 13 Sur -- -- 0 -- -- 55
2020-04-05 12:00:00 15.9 5 Nordeste -- -- 0 -- -- 52
2020-04-05 11:00:00 14.6 5 Noroeste -- -- 0 -- -- 49
2020-04-05 10:00:00 12.7 9 Sudeste -- -- 0 -- -- 53
2020-04-05 09:00:00 10.9 11 Sur -- -- 0 -- -- 56
2020-04-05 08:00:00 10.3 13 Sudeste -- -- 0 -- -- 59
2020-04-05 07:00:00 10.1 10 Sur -- -- 0 -- -- 62
2020-04-05 06:00:00 10.2 11 Sudeste -- -- 0 -- -- 65
2020-04-05 05:00:00 10 11 Sudeste -- -- 0 -- -- 68
2020-04-05 04:00:00 10.3 13 Sudeste -- -- 0 -- -- 67
2020-04-05 03:00:00 10.2 10 Sur -- -- 0 -- -- 69
2020-04-05 02:00:00 10.6 7 Sur -- -- 0 -- -- 64
2020-04-05 01:00:00 10.8 11 Sur -- -- 0 -- -- 62
2020-04-05 00:00:00 10.8 8 Sur -- -- 0 -- -- 59
2020-04-04 23:00:00 10.6 6 Sudeste -- -- 0 -- -- 61
2020-04-04 22:00:00 10.9 10 Sudeste -- -- 0 -- -- 60
2020-04-04 21:00:00 11 10 Sur -- -- 0 -- -- 62
2020-04-04 20:00:00 11.6 13 Sur -- -- 0 -- -- 67
2020-04-04 19:00:00 11.5 13 Sur -- -- 0 -- -- 70
2020-04-04 18:00:00 12 16 Sur -- -- 0 -- -- 67
2020-04-04 17:00:00 12.2 13 Sur -- -- 0 -- -- 70
2020-04-04 16:00:00 11.5 8 Sur -- -- 0 -- -- 77
2020-04-04 15:00:00 10.7 11 Sudeste -- -- 0 -- -- 79
2020-04-04 14:00:00 11.9 23 Sur -- -- 0 -- -- 66
2020-04-04 13:00:00 12.8 7 Sudeste -- -- 0 -- -- 57
2020-04-04 12:00:00 12.7 22 Sur -- -- 0 -- -- 53
2020-04-04 11:00:00 12.3 15 Sur -- -- 0 -- -- 55
2020-04-04 10:00:00 11.6 16 Sur -- -- 0 -- -- 49
2020-04-04 09:00:00 10.3 15 Sur -- -- 0 -- -- 53
2020-04-04 08:00:00 10 14 Sur -- -- 0 -- -- 54
2020-04-04 07:00:00 9.5 12 Sur -- -- 0 -- -- 56
2020-04-04 06:00:00 9.6 11 Sur -- -- 0 -- -- 57
2020-04-04 05:00:00 9.5 11 Sur -- -- 0 -- -- 57
2020-04-04 04:00:00 9.3 12 Sur -- -- 0 -- -- 58
2020-04-04 03:00:00 9.6 14 Sur -- -- 0 -- -- 56
2020-04-04 02:00:00 9.6 8 Sur -- -- 0 -- -- 58
2020-04-04 01:00:00 9.9 7 Sur -- -- 0 -- -- 60
2020-04-04 00:00:00 9.8 12 Sur -- -- 0 -- -- 61
2020-04-03 23:00:00 9.9 14 Sur -- -- 0 -- -- 61
2020-04-03 22:00:00 10 5 Sudeste -- -- 0 -- -- 64
2020-04-03 21:00:00 11 6 Este -- -- 0 -- -- 65
2020-04-03 20:00:00 12.6 10 Sudeste -- -- 0 -- -- 58
2020-04-03 19:00:00 14.6 13 Sur -- -- 0 -- -- 56
2020-04-03 18:00:00 15.3 13 Sur -- -- 0 -- -- 56
2020-04-03 17:00:00 15.4 14 Sur -- -- 0 -- -- 58
2020-04-03 16:00:00 16.2 5 Sudeste -- -- 0 -- -- 48
2020-04-03 15:00:00 16.4 7 Sudeste -- -- 0 -- -- 53
2020-04-03 14:00:00 15.2 8 Norte -- -- 0 -- -- 51
2020-04-03 13:00:00 15.1 5 Norte -- -- 0 -- -- 56
2020-04-03 12:00:00 13.5 3 Sudoeste -- -- 0 -- -- 68
2020-04-03 11:00:00 11.8 3 Oeste -- -- 0 -- -- 66
2020-04-03 10:00:00 10.2 2 Oeste -- -- 0 -- -- 75
2020-04-03 09:00:00 6.7 2 Este -- -- 0 -- -- 84
2020-04-03 08:00:00 5.9 4 Este -- -- 0 -- -- 85
2020-04-03 07:00:00 5.9 5 Este -- -- 0 -- -- 85
2020-04-03 06:00:00 6 4 Este -- -- 0 -- -- 85
2020-04-03 05:00:00 6.4 3 Este -- -- 0 -- -- 85
2020-04-03 04:00:00 6.2 5 Este -- -- 0 -- -- 86
2020-04-03 03:00:00 6.1 4 Este -- -- 0 -- -- 89
2020-04-03 02:00:00 6.1 3 Este -- -- 0 -- -- 89
2020-04-03 01:00:00 6.2 3 Este -- -- 0 -- -- 90
2020-04-03 00:00:00 6.8 0 Calma -- -- 0 -- -- 89
2020-04-02 23:00:00 7.2 0 Calma -- -- 0 -- -- 88
2020-04-02 22:00:00 7.7 6 Noroeste -- -- 0 -- -- 84
2020-04-02 21:00:00 8.4 6 Noroeste -- -- 0 -- -- 84
2020-04-02 20:00:00 9.2 8 Noroeste -- -- 0 -- -- 74
2020-04-02 19:00:00 10.5 14 Noroeste -- -- 0 -- -- 66
2020-04-02 18:00:00 9.9 10 Noroeste -- -- 0 -- -- 70
2020-04-02 17:00:00 9.4 9 Noroeste -- -- 0 -- -- 71
2020-04-02 16:00:00 10 16 Noroeste -- -- 0 -- -- 70
2020-04-02 15:00:00 9.4 19 Noroeste -- -- 0 -- -- 70
2020-04-02 14:00:00 8.6 14 Oeste -- -- 0.2 -- -- 76
2020-04-02 13:00:00 8 4 Sudoeste -- -- 0 -- -- 83
2020-04-02 12:00:00 5.7 4 Norte -- -- 1.4 -- -- 94
2020-04-02 11:00:00 6.1 3 Noroeste -- -- 0.6 -- -- 90
2020-04-02 10:00:00 6.8 0 Calma -- -- 0.2 -- -- 85
2020-04-02 09:00:00 4.5 3 Sudeste -- -- 0 -- -- 90
2020-04-02 08:00:00 4.4 5 Sudeste -- -- 2 -- -- 90
2020-04-02 07:00:00 5 11 Oeste -- -- 2.8 -- -- 92
2020-04-02 06:00:00 6.6 4 Sudoeste -- -- 0.4 -- -- 90
2020-04-02 05:00:00 6.9 8 Sur -- -- 0.4 -- -- 88
2020-04-02 04:00:00 7.1 5 Sur -- -- 0.2 -- -- 87
2020-04-02 03:00:00 7.1 4 Sur -- -- 0.2 -- -- 88
2020-04-02 02:00:00 7.2 6 Sur -- -- 0.2 -- -- 83
2020-04-02 01:00:00 7.8 5 Sur -- -- 0 -- -- 80
2020-04-02 00:00:00 8 6 Sur -- -- 0 -- -- 78
2020-04-01 23:00:00 7.8 6 Sur -- -- 0 -- -- 78
2020-04-01 22:00:00 7.8 3 Este -- -- 0.2 -- -- 80
2020-04-01 21:00:00 8.2 5 Sudoeste -- -- 0 -- -- 78
2020-04-01 20:00:00 9.2 15 Noroeste -- -- 0 -- -- 80
2020-04-01 19:00:00 11.8 6 Sur -- -- 0 -- -- 56
2020-04-01 18:00:00 13.3 11 Noroeste -- -- 0 -- -- 56
2020-04-01 17:00:00 13.5 10 Noroeste -- -- 0 -- -- 60
2020-04-01 16:00:00 13 12 Noroeste -- -- 0 -- -- 56
2020-04-01 15:00:00 13.3 9 Sur -- -- 0 -- -- 64
2020-04-01 14:00:00 12.3 5 Sur -- -- 0 -- -- 68
2020-04-01 13:00:00 11.2 10 Noroeste -- -- 0 -- -- 71
2020-04-01 12:00:00 11.1 9 Noroeste -- -- 0 -- -- 76
2020-04-01 11:00:00 10.5 3 Sudoeste -- -- 0 -- -- 85
2020-04-01 10:00:00 8.2 0 Calma -- -- 0 -- -- 92
2020-04-01 09:00:00 7.5 0 Calma -- -- 0 -- -- 93
2020-04-01 08:00:00 7.4 2 Sudeste -- -- 0 -- -- 93
2020-04-01 07:00:00 7.5 0 Calma -- -- 0 -- -- 92
2020-04-01 06:00:00 7.2 3 Sudeste -- -- 0 -- -- 91
2020-04-01 05:00:00 7.4 2 Sur -- -- 0 -- -- 89
2020-04-01 04:00:00 8.1 3 Sur -- -- 0 -- -- 87
2020-04-01 03:00:00 8.7 5 Sur -- -- 0 -- -- 85
2020-04-01 02:00:00 8.6 3 Sudoeste -- -- 0.2 -- -- 90
2020-04-01 01:00:00 9.1 3 Sudoeste -- -- 0 -- -- 91
2020-04-01 00:00:00 9.1 5 Sur -- -- 0 -- -- 88
2020-03-31 23:00:00 9.4 6 Sur -- -- 0 -- -- 89
2020-03-31 22:00:00 9.3 5 Sur -- -- 0.2 -- -- 89
2020-03-31 21:00:00 9.5 6 Sur -- -- 0.4 -- -- 93
2020-03-31 20:00:00 10 4 Sudoeste -- -- 2 -- -- 92
2020-03-31 19:00:00 11.1 8 Sur -- -- 0 -- -- 85
2020-03-31 18:00:00 11.8 10 Sur -- -- 1 -- -- 87
2020-03-31 17:00:00 10 10 Sur -- -- 5 -- -- 90
2020-03-31 16:00:00 11.4 14 Sur -- -- 0.2 -- -- 87
2020-03-31 15:00:00 14.2 17 Sur -- -- 0 -- -- 73
2020-03-31 14:00:00 13.1 16 Sur -- -- 0.2 -- -- 78
2020-03-31 13:00:00 11.4 12 Sur -- -- 0.2 -- -- 86
2020-03-31 12:00:00 10.3 7 Sur -- -- 0 -- -- 90
2020-03-31 11:00:00 9.5 0 Calma -- -- 2.2 -- -- 92
2020-03-31 10:00:00 9.3 2 Sur -- -- 1 -- -- 95
2020-03-31 09:00:00 8.8 6 Sur -- -- 0.6 -- -- 94
2020-03-31 08:00:00 8.5 0 Calma -- -- 0.2 -- -- 93
2020-03-31 07:00:00 8.5 5 Sur -- -- 1.4 -- -- 92
2020-03-31 06:00:00 8.7 11 Sur -- -- 0.8 -- -- 92
2020-03-31 05:00:00 8.9 13 Sur -- -- 0.2 -- -- 91
2020-03-31 04:00:00 8.6 18 Sur -- -- 3.8 -- -- 91
2020-03-31 03:00:00 8.9 18 Sur -- -- 6.2 -- -- 91
2020-03-31 02:00:00 9.3 16 Sur -- -- 1.2 -- -- 90
2020-03-31 01:00:00 9.1 8 Sur -- -- 0.4 -- -- 87
2020-03-31 00:00:00 9.7 3 Nordeste -- -- 0 -- -- 79
2020-03-30 23:00:00 10 7 Sudeste -- -- 0 -- -- 76
2020-03-30 22:00:00 10.8 9 Sur -- -- 0 -- -- 70
2020-03-30 21:00:00 11.3 4 Sur -- -- 0 -- -- 68
2020-03-30 20:00:00 11.7 7 Sur -- -- 0 -- -- 60
2020-03-30 19:00:00 12.5 8 Sur -- -- 0 -- -- 66
2020-03-30 18:00:00 13.2 9 Sur -- -- 0 -- -- 61
2020-03-30 17:00:00 13.3 6 Sur -- -- 0 -- -- 65
2020-03-30 16:00:00 14.2 9 Sur -- -- 0 -- -- 60
2020-03-30 15:00:00 15.3 4 Sudoeste -- -- 0 -- -- 52
2020-03-30 14:00:00 14.9 6 Noroeste -- -- 0 -- -- 49
2020-03-30 13:00:00 13.6 4 Sudoeste -- -- 0 -- -- 61
2020-03-30 12:00:00 11.9 5 Noroeste -- -- 0 -- -- 64
2020-03-30 11:00:00 11 2 Sur -- -- 0 -- -- 79
2020-03-30 10:00:00 9 2 Norte -- -- 0 -- -- 90
2020-03-30 09:00:00 8 0 Calma -- -- 0 -- -- 92
2020-03-30 08:00:00 7.9 0 Calma -- -- 0 -- -- 89
2020-03-30 07:00:00 8.3 0 Calma -- -- 0 -- -- 87
2020-03-30 06:00:00 8.3 0 Calma -- -- 0 -- -- 87
2020-03-30 05:00:00 8.3 2 Este -- -- 0 -- -- 88
2020-03-30 04:00:00 8.6 0 Calma -- -- 0 -- -- 88
2020-03-30 03:00:00 8.6 0 Calma -- -- 0 -- -- 87
2020-03-30 02:00:00 8.9 0 Calma -- -- 0 -- -- 83
2020-03-30 01:00:00 9.9 3 Este -- -- 0 -- -- 80
2020-03-30 00:00:00 9.7 4 Este -- -- 0 -- -- 81
2020-03-29 23:00:00 10.1 0 Calma -- -- 0 -- -- 79
2020-03-29 22:00:00 10.9 5 Noroeste -- -- 0 -- -- 76
2020-03-29 21:00:00 11.7 5 Noroeste -- -- 0 -- -- 74
2020-03-29 20:00:00 12.5 2 Oeste -- -- 0 -- -- 67
2020-03-29 19:00:00 12.9 2 Oeste -- -- 0 -- -- 68
2020-03-29 18:00:00 13.5 3 Sur -- -- 0 -- -- 64
2020-03-29 17:00:00 13.9 4 Sudoeste -- -- 0 -- -- 61
2020-03-29 16:00:00 14 2 Sudoeste -- -- 0 -- -- 61
2020-03-29 15:00:00 14 3 Sudoeste -- -- 0 -- -- 59
2020-03-29 14:00:00 14.2 3 Nordeste -- -- 0 -- -- 54
2020-03-29 13:00:00 15.2 6 Noroeste -- -- 0 -- -- 55
2020-03-29 12:00:00 13.2 4 Oeste -- -- 0 -- -- 62
2020-03-29 11:00:00 11.8 4 Noroeste -- -- 0 -- -- 72
2020-03-29 10:00:00 9.5 0 Calma -- -- 0 -- -- 75
2020-03-29 09:00:00 5.7 0 Calma -- -- 0 -- -- 87
2020-03-29 08:00:00 5.7 3 Este -- -- 0 -- -- 88
2020-03-29 07:00:00 6.1 0 Calma -- -- 0 -- -- 89
2020-03-29 06:00:00 6.5 0 Calma -- -- 0 -- -- 85
2020-03-29 05:00:00 6.8 2 Sudeste -- -- 0 -- -- 84
2020-03-29 03:00:00 7 2 Este -- -- 0 -- -- 91
2020-03-29 01:00:00 7.2 0 Calma -- -- 0 -- -- 89
2020-03-29 00:00:00 7.8 0 Calma -- -- 0 -- -- 88
2020-03-28 23:00:00 8 0 Calma -- -- 0 -- -- 87
2020-03-28 22:00:00 8.7 0 Calma -- -- 0 -- -- 86
2020-03-28 21:00:00 9.4 0 Calma -- -- 0 -- -- 82
2020-03-28 20:00:00 10.1 0 Calma -- -- 0 -- -- 80
2020-03-28 19:00:00 10.4 5 Sudeste -- -- 0 -- -- 77
2020-03-28 18:00:00 11.2 6 Sudeste -- -- 0 -- -- 74
2020-03-28 17:00:00 11.6 8 Sur -- -- 0 -- -- 72
2020-03-28 16:00:00 12.5 9 Sur -- -- 0 -- -- 68
2020-03-28 15:00:00 14.5 10 Sur -- -- 0 -- -- 64
2020-03-28 14:00:00 14 12 Sur -- -- 0 -- -- 70
2020-03-28 13:00:00 14.5 9 Sur -- -- 0 -- -- 61
2020-03-28 12:00:00 14.5 12 Sur -- -- 0 -- -- 56
2020-03-28 11:00:00 13.1 12 Sur -- -- 0 -- -- 63
2020-03-28 10:00:00 11.3 6 Sur -- -- 0 -- -- 70
2020-03-28 09:00:00 9.4 2 Norte -- -- 0 -- -- 79
2020-03-28 08:00:00 6.1 0 Calma -- -- 0 -- -- 89
2020-03-28 07:00:00 6.3 0 Calma -- -- 0 -- -- 89
2020-03-28 06:00:00 6.1 0 Calma -- -- 0 -- -- 88
2020-03-28 05:00:00 6 0 Calma -- -- 0 -- -- 89
2020-03-28 04:00:00 6.3 0 Calma -- -- 0 -- -- 90
2020-03-28 03:00:00 6.7 0 Calma -- -- 0 -- -- 86
2020-03-28 02:00:00 6.9 2 Nordeste -- -- 0 -- -- 90
2020-03-28 01:00:00 7.5 2 Norte -- -- 0 -- -- 87
2020-03-28 00:00:00 7.7 0 Calma -- -- 0 -- -- 85
2020-03-27 23:00:00 8.1 3 Sur -- -- 0 -- -- 82
2020-03-27 22:00:00 8.9 3 Sudoeste -- -- 0 -- -- 79
2020-03-27 21:00:00 9.6 3 Sudoeste -- -- 0 -- -- 76
2020-03-27 20:00:00 11 3 Sur -- -- 0 -- -- 68
2020-03-27 19:00:00 13.1 6 Sur -- -- 0 -- -- 59
2020-03-27 18:00:00 14.7 6 Sudeste -- -- 0 -- -- 51
2020-03-27 17:00:00 15.6 8 Noroeste -- -- 0 -- -- 49
2020-03-27 16:00:00 15.2 8 Oeste -- -- 0 -- -- 52
2020-03-27 15:00:00 14.5 7 Sudoeste -- -- 0 -- -- 55
2020-03-27 14:00:00 14.3 10 Sur -- -- 0 -- -- 57
2020-03-27 13:00:00 14.6 8 Sur -- -- 0 -- -- 62
2020-03-27 12:00:00 14.1 8 Sur -- -- 0 -- -- 59
2020-03-27 11:00:00 13.4 8 Sur -- -- 0 -- -- 57
2020-03-27 10:00:00 12 3 Sudoeste -- -- 0 -- -- 62
2020-03-27 09:00:00 10.6 8 Sur -- -- 0 -- -- 60
2020-03-27 08:00:00 6.8 4 Sudeste -- -- 0 -- -- 65
2020-03-27 07:00:00 5.9 3 Sudeste -- -- 0 -- -- 70
2020-03-27 06:00:00 5.9 0 Calma -- -- 0 -- -- 91
2020-03-27 05:00:00 6.4 0 Calma -- -- 0 -- -- 88
2020-03-27 04:00:00 6.9 3 Este -- -- 0 -- -- 89
2020-03-27 03:00:00 7.3 3 Este -- -- 0 -- -- 89
2020-03-27 02:00:00 8.4 0 Calma -- -- 0 -- -- 86
2020-03-27 01:00:00 8.9 3 Noroeste -- -- 0 -- -- 87
2020-03-27 00:00:00 9.7 4 Oeste -- -- 0 -- -- 80
2020-03-26 23:00:00 10.2 5 Oeste -- -- 0 -- -- 75
2020-03-26 22:00:00 10.5 8 Oeste -- -- 0 -- -- 74
2020-03-26 21:00:00 11.1 7 Oeste -- -- 0 -- -- 73
2020-03-26 20:00:00 11.8 9 Oeste -- -- 0 -- -- 69
2020-03-26 19:00:00 13.5 12 Noroeste -- -- 0 -- -- 62
2020-03-26 18:00:00 15 15 Oeste -- -- 0 -- -- 53
2020-03-26 17:00:00 15.5 18 Noroeste -- -- 0 -- -- 52
2020-03-26 16:00:00 16.1 17 Noroeste -- -- 0 -- -- 51
2020-03-26 15:00:00 16.3 17 Noroeste -- -- 0 -- -- 51
2020-03-26 14:00:00 16.4 16 Noroeste -- -- 0 -- -- 49
2020-03-26 13:00:00 15.3 14 Noroeste -- -- 0 -- -- 59
2020-03-26 12:00:00 14.4 14 Noroeste -- -- 0 -- -- 70
2020-03-26 11:00:00 12.6 5 Sudoeste -- -- 0 -- -- 77
2020-03-26 10:00:00 9.8 2 Sudoeste -- -- 0 -- -- 92
2020-03-26 09:00:00 8.8 0 Calma -- -- 0 -- -- 95
2020-03-26 08:00:00 7.7 0 Calma -- -- 0 -- -- 95
2020-03-26 07:00:00 7.9 0 Calma -- -- 0 -- -- 94
2020-03-26 06:00:00 8.4 0 Calma -- -- 0 -- -- 94
2020-03-26 05:00:00 8.3 0 Calma -- -- 0 -- -- 95
2020-03-26 04:00:00 8.2 0 Calma -- -- 0 -- -- 95
2020-03-26 03:00:00 7 3 Este -- -- 0 -- -- 95
2020-03-26 02:00:00 6.4 0 Calma -- -- 0 -- -- 96
2020-03-26 01:00:00 6.7 0 Calma -- -- 0.2 -- -- 95
2020-03-26 00:00:00 7.1 0 Calma -- -- 0 -- -- 93
2020-03-25 23:00:00 7.6 0 Calma -- -- 0 -- -- 93
2020-03-25 22:00:00 7.8 0 Calma -- -- 0 -- -- 92
2020-03-25 21:00:00 8.2 0 Calma -- -- 0 -- -- 89
2020-03-25 20:00:00 9.1 0 Calma -- -- 0 -- -- 86
2020-03-25 19:00:00 10.8 0 Calma -- -- 0 -- -- 80
2020-03-25 18:00:00 12.4 5 Noroeste -- -- 0 -- -- 77
2020-03-25 17:00:00 11.5 0 Calma -- -- 0 -- -- 82
2020-03-25 16:00:00 11.7 3 Sudoeste -- -- 0 -- -- 82
2020-03-25 15:00:00 11.4 0 Calma -- -- 0 -- -- 79
2020-03-25 14:00:00 9.8 0 Calma -- -- 0 -- -- 84
2020-03-25 13:00:00 8.6 3 Noroeste -- -- 0.2 -- -- 91
2020-03-25 12:00:00 8.3 0 Calma -- -- 0.2 -- -- 91
2020-03-25 11:00:00 8.4 0 Calma -- -- 0 -- -- 90
2020-03-25 10:00:00 8.2 0 Calma -- -- 0 -- -- 92
2020-03-25 09:00:00 7.9 5 Sur -- -- 0.4 -- -- 95
2020-03-25 08:00:00 8.9 2 Sur -- -- 1.6 -- -- 96
2020-03-25 07:00:00 9 0 Calma -- -- 0.6 -- -- 96
2020-03-25 06:00:00 9 0 Calma -- -- 3 -- -- 96
2020-03-25 05:00:00 9.3 0 Calma -- -- 0.2 -- -- 96
2020-03-25 04:00:00 9.4 0 Calma -- -- 0 -- -- 96
2020-03-25 03:00:00 9.5 0 Calma -- -- 0 -- -- 96
2020-03-25 02:00:00 9.5 0 Calma -- -- 0 -- -- 96
2020-03-25 01:00:00 9.5 0 Calma -- -- 0 -- -- 95
2020-03-25 00:00:00 9.5 0 Calma -- -- 0 -- -- 95
2020-03-24 23:00:00 9.9 0 Calma -- -- 0.2 -- -- 94
2020-03-24 22:00:00 10.1 0 Calma -- -- 0 -- -- 94
2020-03-24 21:00:00 10 0 Calma -- -- 0 -- -- 92
2020-03-24 20:00:00 10.5 0 Calma -- -- 1.2 -- -- 91
2020-03-24 19:00:00 11.6 0 Calma -- -- 0.2 -- -- 85
2020-03-24 18:00:00 12.1 3 Noroeste -- -- 0.2 -- -- 89
2020-03-24 17:00:00 11.9 3 Sudoeste -- -- 0 -- -- 87
2020-03-24 16:00:00 11.8 0 Calma -- -- 0 -- -- 89
2020-03-24 15:00:00 11.4 0 Calma -- -- 0 -- -- 91
2020-03-24 14:00:00 10.5 0 Calma -- -- 0.8 -- -- 93
2020-03-24 13:00:00 10 4 Norte -- -- 1.6 -- -- 92
2020-03-24 12:00:00 9.3 0 Calma -- -- 0.2 -- -- 96
2020-03-24 11:00:00 8.6 0 Calma -- -- 1.2 -- -- 96
2020-03-24 10:00:00 8.2 0 Calma -- -- 0 -- -- 96
2020-03-24 09:00:00 7.6 0 Calma -- -- 0.8 -- -- 95
2020-03-24 08:00:00 6.9 3 Sudoeste -- -- 3.4 -- -- 94
2020-03-24 07:00:00 7.1 4 Nordeste -- -- 0 -- -- 93
2020-03-24 06:00:00 7 0 Calma -- -- 0 -- -- 94
2020-03-24 05:00:00 6.6 0 Calma -- -- 0 -- -- 94
2020-03-24 04:00:00 6.4 0 Calma -- -- 0 -- -- 94
2020-03-24 03:00:00 6.8 0 Calma -- -- 0 -- -- 93
2020-03-24 02:00:00 7.1 0 Calma -- -- 0 -- -- 93
2020-03-24 01:00:00 7.2 3 Nordeste -- -- 0.2 -- -- 91
2020-03-24 00:00:00 7.2 5 Norte -- -- 0.2 -- -- 90
2020-03-23 23:00:00 7.2 4 Norte -- -- 0 -- -- 88
2020-03-23 22:00:00 7.6 0 Calma -- -- 0 -- -- 86
2020-03-23 21:00:00 7.9 5 Norte -- -- 0 -- -- 86
2020-03-23 20:00:00 8.4 10 Nordeste -- -- 0.2 -- -- 82
2020-03-23 19:00:00 9.5 5 Este -- -- 0.2 -- -- 76
2020-03-23 18:00:00 10.9 9 Sudeste -- -- 0 -- -- 65
2020-03-23 17:00:00 11.8 8 Sur -- -- 0 -- -- 62
2020-03-23 16:00:00 12.4 5 Sur -- -- 0 -- -- 63
2020-03-23 15:00:00 11.4 8 Sur -- -- 0 -- -- 64
2020-03-23 14:00:00 12.2 9 Este -- -- 0 -- -- 66
2020-03-23 13:00:00 11.5 10 Este -- -- 0 -- -- 65
2020-03-23 12:00:00 12.1 3 Sudeste -- -- 0.2 -- -- 64
2020-03-23 11:00:00 10.9 2 Oeste -- -- 0 -- -- 72
2020-03-23 10:00:00 9.4 0 Calma -- -- 0 -- -- 82
2020-03-23 09:00:00 7.1 0 Calma -- -- 0 -- -- 90
2020-03-23 08:00:00 3.8 0 Calma -- -- 0 -- -- 94
2020-03-23 07:00:00 3.9 0 Calma -- -- 0 -- -- 94
2020-03-23 06:00:00 4 0 Calma -- -- 0 -- -- 94
2020-03-23 05:00:00 4.2 0 Calma -- -- 0 -- -- 93
2020-03-23 04:00:00 4.5 0 Calma -- -- 0 -- -- 93
2020-03-23 03:00:00 4.8 0 Calma -- -- 0 -- -- 93
2020-03-23 02:00:00 5.1 0 Calma -- -- 0 -- -- 93
2020-03-23 01:00:00 5.5 0 Calma -- -- 0 -- -- 92
2020-03-23 00:00:00 6.1 0 Calma -- -- 0 -- -- 90
2020-03-22 23:00:00 6.5 0 Calma -- -- 0 -- -- 90
2020-03-22 22:00:00 6.6 5 Este -- -- 0 -- -- 88
2020-03-22 21:00:00 8.4 0 Calma -- -- 0 -- -- 88
2020-03-22 20:00:00 8.9 4 Norte -- -- 0 -- -- 85
2020-03-22 19:00:00 9.6 4 Noroeste -- -- 0 -- -- 81
2020-03-22 18:00:00 10.5 4 Oeste -- -- 0 -- -- 76
2020-03-22 17:00:00 11.5 4 Noroeste -- -- 0 -- -- 69
2020-03-22 16:00:00 12.3 4 Oeste -- -- 0.2 -- -- 70
2020-03-22 15:00:00 10.2 4 Sudoeste -- -- 1 -- -- 78
2020-03-22 14:00:00 9.8 3 Sur -- -- 0.2 -- -- 74
2020-03-22 13:00:00 9.3 0 Calma -- -- 0.6 -- -- 81
2020-03-22 12:00:00 9.5 4 Noroeste -- -- 0 -- -- 78
2020-03-22 11:00:00 10.2 0 Calma -- -- 0 -- -- 71
2020-03-22 10:00:00 8.9 0 Calma -- -- 0 -- -- 88
2020-03-22 09:00:00 6.7 0 Calma -- -- 0 -- -- 96
2020-03-22 08:00:00 4.6 0 Calma -- -- 0.2 -- -- 95
2020-03-22 07:00:00 4.9 0 Calma -- -- 0 -- -- 94
2020-03-22 06:00:00 5.4 2 Este -- -- 0 -- -- 93
2020-03-22 05:00:00 5.6 0 Calma -- -- 0 -- -- 92
2020-03-22 04:00:00 5.5 0 Calma -- -- 0.4 -- -- 91
2020-03-22 03:00:00 5.7 0 Calma -- -- 0 -- -- 90
2020-03-22 02:00:00 5.7 2 Sur -- -- 0.8 -- -- 90
2020-03-22 01:00:00 6.3 4 Sur -- -- 0.2 -- -- 88
2020-03-22 00:00:00 6.4 7 Sur -- -- 0.2 -- -- 88
2020-03-21 23:00:00 6.8 6 Sur -- -- 0 -- -- 86
2020-03-21 22:00:00 6.8 5 Sur -- -- 0.2 -- -- 84
2020-03-21 21:00:00 6.6 0 Calma -- -- 0 -- -- 87
2020-03-21 20:00:00 6.9 4 Sudoeste -- -- 0.4 -- -- 88
2020-03-21 19:00:00 7.7 13 Sur -- -- 0.2 -- -- 85
2020-03-21 18:00:00 8 15 Sur -- -- 0 -- -- 89
2020-03-21 17:00:00 7.7 13 Sur -- -- 2.2 -- -- 90
2020-03-21 16:00:00 6.7 7 Sur -- -- 3.6 -- -- 91
2020-03-21 15:00:00 7.5 14 Sur -- -- 1.4 -- -- 87
2020-03-21 14:00:00 8.1 8 Sur -- -- 0.8 -- -- 86
2020-03-21 13:00:00 11.2 14 Sur -- -- 0 -- -- 65
2020-03-21 12:00:00 9.7 13 Sur -- -- 0.2 -- -- 76
2020-03-21 11:00:00 10.3 10 Sur -- -- 0 -- -- 74
2020-03-21 10:00:00 8.9 3 Sudoeste -- -- 0 -- -- 82
2020-03-21 09:00:00 7.3 0 Calma -- -- 0 -- -- 87
2020-03-21 08:00:00 6.5 3 Sur -- -- 0 -- -- 85
2020-03-21 07:00:00 6.6 3 Sur -- -- 0 -- -- 85
2020-03-21 06:00:00 6.7 0 Calma -- -- 0 -- -- 90
2020-03-21 05:00:00 6.8 4 Sur -- -- 0 -- -- 88
2020-03-21 04:00:00 7.4 0 Calma -- -- 0.8 -- -- 94
2020-03-21 03:00:00 7.8 2 Oeste -- -- 4 -- -- 94
2020-03-21 02:00:00 9 5 Noroeste -- -- 10.2 -- -- 93
2020-03-21 01:00:00 10.5 7 Sur -- -- 0.6 -- -- 89
2020-03-21 00:00:00 10.5 8 Sudeste -- -- 0 -- -- 87
2020-03-20 23:00:00 10.5 12 Sur -- -- 0 -- -- 90
2020-03-20 22:00:00 10.9 8 Sur -- -- 0 -- -- 85
2020-03-20 21:00:00 10.5 6 Sur -- -- 0 -- -- 82
2020-03-20 20:00:00 10.6 14 Sur -- -- 0 -- -- 82
2020-03-20 19:00:00 11.6 13 Sur -- -- 0 -- -- 74
2020-03-20 18:00:00 12.6 14 Sur -- -- 0 -- -- 73
2020-03-20 17:00:00 13.9 12 Sur -- -- 0 -- -- 67
2020-03-20 16:00:00 13.8 10 Sur -- -- 0 -- -- 68
2020-03-20 15:00:00 13.8 5 Sudoeste -- -- 0 -- -- 67
2020-03-20 14:00:00 12.8 12 Sur -- -- 0 -- -- 70
2020-03-20 13:00:00 12 18 Sur -- -- 0 -- -- 73
2020-03-20 12:00:00 12.1 17 Sur -- -- 0 -- -- 71
2020-03-20 11:00:00 12.6 14 Sur -- -- 0 -- -- 69
2020-03-20 10:00:00 10.8 12 Sur -- -- 0 -- -- 75
2020-03-20 09:00:00 10.1 13 Sur -- -- 0 -- -- 75
2020-03-20 08:00:00 9.2 15 Sur -- -- 0 -- -- 81
2020-03-20 07:00:00 9.3 16 Sur -- -- 0 -- -- 85
2020-03-20 06:00:00 9.6 14 Sur -- -- 0 -- -- 77
2020-03-20 05:00:00 9.9 12 Sur -- -- 0 -- -- 71
2020-03-20 04:00:00 10 15 Sur -- -- 0 -- -- 71
2020-03-20 03:00:00 9.5 14 Sur -- -- 0 -- -- 80
2020-03-20 02:00:00 9.7 15 Sur -- -- 0 -- -- 86
2020-03-20 01:00:00 10.3 12 Sur -- -- 0 -- -- 85
2020-03-20 00:00:00 10.6 14 Sur -- -- 0 -- -- 82
2020-03-19 23:00:00 10.6 14 Sur -- -- 0 -- -- 84
2020-03-19 22:00:00 10.6 13 Sur -- -- 0 -- -- 83
2020-03-19 21:00:00 10.8 17 Sur -- -- 0 -- -- 78
2020-03-19 20:00:00 11.8 10 Sur -- -- 0 -- -- 72
2020-03-19 19:00:00 12.5 12 Sur -- -- 0 -- -- 70
2020-03-19 18:00:00 13.2 14 Sur -- -- 0 -- -- 68
2020-03-19 17:00:00 13.1 14 Sur -- -- 0 -- -- 69
2020-03-19 16:00:00 12.8 17 Sur -- -- 0 -- -- 71
2020-03-19 15:00:00 12.4 15 Sur -- -- 0 -- -- 72
2020-03-19 14:00:00 12.7 19 Sur -- -- 0 -- -- 71
2020-03-19 13:00:00 13.7 19 Sur -- -- 0 -- -- 67
2020-03-19 12:00:00 12.4 15 Sur -- -- 0 -- -- 70
2020-03-19 11:00:00 12 22 Sur -- -- 0 -- -- 75
2020-03-19 10:00:00 11.3 17 Sur -- -- 0 -- -- 78
2020-03-19 09:00:00 10.5 17 Sur -- -- 0 -- -- 80
2020-03-19 08:00:00 10.1 17 Sur -- -- 0 -- -- 82
2020-03-19 07:00:00 10.2 11 Sur -- -- 0 -- -- 81
2020-03-19 06:00:00 10.5 15 Sur -- -- 0 -- -- 81
2020-03-19 05:00:00 10.9 10 Sur -- -- 0 -- -- 78
2020-03-19 04:00:00 10.8 12 Sur -- -- 0 -- -- 77
2020-03-19 03:00:00 10.7 18 Sur -- -- 0 -- -- 77
2020-03-19 02:00:00 11 13 Sur -- -- 0 -- -- 76
2020-03-19 01:00:00 11 14 Sur -- -- 0 -- -- 76
2020-03-19 00:00:00 11.1 18 Sur -- -- 0 -- -- 76
2020-03-18 23:00:00 11.2 16 Sur -- -- 0 -- -- 76
2020-03-18 22:00:00 11.8 17 Sur -- -- 0 -- -- 71
2020-03-18 21:00:00 12.8 16 Sur -- -- 0 -- -- 64
2020-03-18 20:00:00 13 10 Sur -- -- 0 -- -- 64
2020-03-18 19:00:00 13.5 8 Sur -- -- 0 -- -- 64
2020-03-18 18:00:00 15.4 6 Sur -- -- 0 -- -- 60
2020-03-18 17:00:00 16.3 12 Sur -- -- 0 -- -- 58
2020-03-18 16:00:00 16.8 12 Sur -- -- 0 -- -- 58
2020-03-18 15:00:00 16.1 18 Sur -- -- 0 -- -- 60
2020-03-18 14:00:00 14.9 17 Sur -- -- 0 -- -- 65
2020-03-18 13:00:00 13.3 16 Sur -- -- 0 -- -- 72
2020-03-18 12:00:00 14.6 14 Sur -- -- 0 -- -- 65
2020-03-18 11:00:00 13.7 18 Sur -- -- 0 -- -- 70
2020-03-18 10:00:00 13.5 12 Sur -- -- 0.2 -- -- 71
2020-03-18 09:00:00 12.6 6 Sudeste -- -- 0 -- -- 74
2020-03-18 08:00:00 12.8 12 Sur -- -- 0 -- -- 72
2020-03-18 07:00:00 12.7 9 Sudeste -- -- 0 -- -- 70
2020-03-18 06:00:00 13 10 Este -- -- 0 -- -- 67
2020-03-18 05:00:00 12.4 13 Sudeste -- -- 0 -- -- 73
2020-03-18 04:00:00 12.3 11 Sudeste -- -- 0 -- -- 77
2020-03-18 03:00:00 12.6 14 Este -- -- 0 -- -- 76
2020-03-18 02:00:00 12.6 12 Este -- -- 0 -- -- 76
2020-03-18 01:00:00 12.6 21 Sudeste -- -- 0 -- -- 75
2020-03-18 00:00:00 12.1 17 Sudeste -- -- 0 -- -- 77
2020-03-17 23:00:00 11 8 Norte -- -- 0 -- -- 80
2020-03-17 22:00:00 10.5 13 Norte -- -- 0 -- -- 82
2020-03-17 21:00:00 10.9 11 Nordeste -- -- 0 -- -- 80
2020-03-17 20:00:00 9.7 12 Nordeste -- -- 0 -- -- 85
2020-03-17 19:00:00 10.1 3 Norte -- -- 0 -- -- 72
2020-03-17 18:00:00 10.2 6 Sudeste -- -- 0 -- -- 73
2020-03-17 17:00:00 12.1 12 Este -- -- 0 -- -- 57
2020-03-17 16:00:00 12.1 14 Este -- -- 0 -- -- 55
2020-03-17 15:00:00 11.2 8 Sudeste -- -- 0.2 -- -- 62
2020-03-17 14:00:00 10.4 12 Sudeste -- -- 0 -- -- 64
2020-03-17 13:00:00 9.7 14 Sudeste -- -- 0 -- -- 60
2020-03-17 12:00:00 9.4 13 Sudeste -- -- 0 -- -- 65
2020-03-17 11:00:00 7.1 5 Sur -- -- 0 -- -- 89
2020-03-17 10:00:00 5.1 5 Sur -- -- 0.4 -- -- 92
2020-03-17 09:00:00 3.5 6 Sudeste -- -- 0.6 -- -- 91
2020-03-17 08:00:00 3.1 7 Este -- -- 2 -- -- 92
2020-03-17 07:00:00 4.3 6 Sur -- -- 1.2 -- -- 91
2020-03-17 06:00:00 4.5 4 Sudeste -- -- 0.6 -- -- 93
2020-03-17 05:00:00 4.3 0 Calma -- -- 0.2 -- -- 93
2020-03-17 04:00:00 4.4 0 Calma -- -- 0.2 -- -- 91
2020-03-17 03:00:00 4.6 3 Este -- -- 0 -- -- 89
2020-03-17 02:00:00 5 5 Noroeste -- -- 0 -- -- 82
2020-03-17 01:00:00 5.5 0 Calma -- -- 0 -- -- 73
2020-03-17 00:00:00 5.4 2 Sur -- -- 0 -- -- 75
2020-03-16 23:00:00 5.7 0 Calma -- -- 0 -- -- 73
2020-03-16 22:00:00 6.3 7 Noroeste -- -- 0 -- -- 69
2020-03-16 21:00:00 7.2 5 Noroeste -- -- 0 -- -- 62
2020-03-16 20:00:00 8.3 8 Oeste -- -- 0 -- -- 54
2020-03-16 19:00:00 8.7 13 Oeste -- -- 0 -- -- 53
2020-03-16 18:00:00 9.6 16 Oeste -- -- 0 -- -- 50
2020-03-16 17:00:00 9.8 15 Noroeste -- -- 0 -- -- 48
2020-03-16 16:00:00 11.2 18 Noroeste -- -- 0 -- -- 47
2020-03-16 15:00:00 10.6 22 Oeste -- -- 0 -- -- 47
2020-03-16 14:00:00 10.6 19 Noroeste -- -- 0 -- -- 47
2020-03-16 13:00:00 10.2 19 Noroeste -- -- 0 -- -- 46
2020-03-16 12:00:00 9.7 8 Noroeste -- -- 0 -- -- 50
2020-03-16 11:00:00 8.4 8 Norte -- -- 0 -- -- 51
2020-03-16 10:00:00 8 4 Norte -- -- 0 -- -- 52
2020-03-16 09:00:00 6.6 5 Noroeste -- -- 0 -- -- 63
2020-03-16 08:00:00 5.7 7 Noroeste -- -- 0 -- -- 76
2020-03-16 07:00:00 6.5 12 Noroeste -- -- 0 -- -- 80
2020-03-16 06:00:00 7.3 14 Noroeste -- -- 0 -- -- 91
2020-03-16 05:00:00 8.7 12 Noroeste -- -- 0.2 -- -- 94
2020-03-16 04:00:00 9.7 0 Calma -- -- 0 -- -- 92
2020-03-16 03:00:00 9.8 0 Calma -- -- 0 -- -- 93
2020-03-16 02:00:00 9.4 0 Calma -- -- 0 -- -- 95
2020-03-16 01:00:00 9.7 0 Calma -- -- 0 -- -- 94
2020-03-16 00:00:00 9.9 3 Oeste -- -- 0 -- -- 92
2020-03-15 23:00:00 10.6 0 Calma -- -- 0 -- -- 88
2020-03-15 22:00:00 11.2 0 Calma -- -- 0 -- -- 86
2020-03-15 21:00:00 12.1 3 Noroeste -- -- 0 -- -- 83
2020-03-15 20:00:00 14.5 0 Calma -- -- 0 -- -- 74
2020-03-15 19:00:00 16.9 3 Oeste -- -- 0 -- -- 65
2020-03-15 18:00:00 18.3 6 Oeste -- -- 0 -- -- 60
2020-03-15 17:00:00 19.5 8 Noroeste -- -- 0 -- -- 55
2020-03-15 16:00:00 19.4 5 Sudeste -- -- 0 -- -- 50
2020-03-15 15:00:00 19.8 10 Sur -- -- 0 -- -- 49
2020-03-15 14:00:00 19.2 8 Sur -- -- 0 -- -- 49
2020-03-15 13:00:00 16.9 3 Sudoeste -- -- 0 -- -- 61
2020-03-15 12:00:00 14 0 Calma -- -- 0 -- -- 73
2020-03-15 11:00:00 12.3 2 Sudeste -- -- 0 -- -- 77
2020-03-15 10:00:00 10.8 3 Norte -- -- 0 -- -- 81
2020-03-15 09:00:00 10.6 4 Sudoeste -- -- 0 -- -- 79
2020-03-15 08:00:00 9.8 0 Calma -- -- 0 -- -- 82
2020-03-15 07:00:00 9.8 3 Noroeste -- -- 0 -- -- 83
2020-03-15 06:00:00 9.8 0 Calma -- -- 0 -- -- 82
2020-03-15 05:00:00 9.5 0 Calma -- -- 0 -- -- 84
2020-03-15 04:00:00 9.6 0 Calma -- -- 0 -- -- 90
2020-03-15 03:00:00 10.1 0 Calma -- -- 0 -- -- 91
2020-03-15 02:00:00 10.4 0 Calma -- -- 0 -- -- 90
2020-03-15 01:00:00 11.2 0 Calma -- -- 0 -- -- 92
2020-03-15 00:00:00 11.4 0 Calma -- -- 0 -- -- 90
2020-03-14 23:00:00 12 0 Calma -- -- 0 -- -- 88
2020-03-14 22:00:00 13 0 Calma -- -- 0 -- -- 84
2020-03-14 21:00:00 14.4 0 Calma -- -- 0 -- -- 80
2020-03-14 20:00:00 15.4 3 Oeste -- -- 0 -- -- 75
2020-03-14 19:00:00 17.9 6 Oeste -- -- 0 -- -- 66
2020-03-14 18:00:00 20.1 8 Noroeste -- -- 0 -- -- 58
2020-03-14 17:00:00 21 10 Noroeste -- -- 0 -- -- 55
2020-03-14 16:00:00 21.5 11 Noroeste -- -- 0 -- -- 54
2020-03-14 15:00:00 21.7 9 Noroeste -- -- 0 -- -- 51
2020-03-14 14:00:00 21.9 6 Oeste -- -- 0 -- -- 38
2020-03-14 13:00:00 20.8 6 Noroeste -- -- 0 -- -- 34
2020-03-14 12:00:00 18.5 4 Sudoeste -- -- 0 -- -- 54
2020-03-14 11:00:00 16.7 3 Oeste -- -- 0 -- -- 60
2020-03-14 10:00:00 14.8 0 Calma -- -- 0 -- -- 67
2020-03-14 09:00:00 11.5 3 Este -- -- 0 -- -- 67
2020-03-14 08:00:00 9.2 0 Calma -- -- 0 -- -- 82
2020-03-14 07:00:00 9.6 3 Este -- -- 0 -- -- 79
2020-03-14 06:00:00 9.7 2 Este -- -- 0 -- -- 80
2020-03-14 05:00:00 10.1 3 Sudeste -- -- 0 -- -- 79
2020-03-14 04:00:00 10.2 3 Este -- -- 0 -- -- 81
2020-03-14 03:00:00 10.6 0 Calma -- -- 0 -- -- 85
2020-03-14 02:00:00 11 0 Calma -- -- 0 -- -- 80
2020-03-14 01:00:00 11.6 0 Calma -- -- 0 -- -- 81
2020-03-14 00:00:00 12.2 2 Este -- -- 0 -- -- 78
2020-03-13 23:00:00 12.8 0 Calma -- -- 0 -- -- 77
2020-03-13 22:00:00 13.8 0 Calma -- -- 0 -- -- 72
2020-03-13 21:00:00 14.3 0 Calma -- -- 0 -- -- 71
2020-03-13 20:00:00 15.3 2 Oeste -- -- 0 -- -- 67
2020-03-13 19:00:00 17.5 7 Noroeste -- -- 0 -- -- 59
2020-03-13 18:00:00 19.4 10 Noroeste -- -- 0 -- -- 52
2020-03-13 17:00:00 21 12 Noroeste -- -- 0 -- -- 49
2020-03-13 16:00:00 21.1 13 Noroeste -- -- 0 -- -- 43
2020-03-13 15:00:00 21.3 13 Noroeste -- -- 0 -- -- 48
2020-03-13 14:00:00 21.4 10 Noroeste -- -- 0 -- -- 46
2020-03-13 13:00:00 21.2 4 Oeste -- -- 0 -- -- 46
2020-03-13 12:00:00 19.9 4 Noroeste -- -- 0 -- -- 46
2020-03-13 11:00:00 18.3 3 Norte -- -- 0 -- -- 42
2020-03-13 10:00:00 16.5 0 Calma -- -- 0 -- -- 54
2020-03-13 09:00:00 12.7 0 Calma -- -- 0 -- -- 61
2020-03-13 08:00:00 11.6 0 Calma -- -- 0 -- -- 69
2020-03-13 07:00:00 11.7 2 Este -- -- 0 -- -- 53
2020-03-13 06:00:00 11.7 5 Este -- -- 0 -- -- 53
2020-03-13 05:00:00 12 2 Nordeste -- -- 0 -- -- 64
2020-03-13 04:00:00 12.1 4 Este -- -- 0 -- -- 64
2020-03-13 03:00:00 12.5 5 Este -- -- 0 -- -- 65
2020-03-13 02:00:00 12.7 5 Este -- -- 0 -- -- 68
2020-03-13 01:00:00 13.7 3 Este -- -- 0 -- -- 70
2020-03-13 00:00:00 14.6 0 Calma -- -- 0 -- -- 63
2020-03-12 23:00:00 15.5 0 Calma -- -- 0 -- -- 63
2020-03-12 22:00:00 16.5 0 Calma -- -- 0 -- -- 63
2020-03-12 21:00:00 17.6 0 Calma -- -- 0 -- -- 50
2020-03-12 20:00:00 18.7 6 Noroeste -- -- 0 -- -- 46
2020-03-12 19:00:00 21.3 7 Noroeste -- -- 0 -- -- 38
2020-03-12 18:00:00 24.3 8 Noroeste -- -- 0 -- -- 35
2020-03-12 17:00:00 25.5 7 Oeste -- -- 0 -- -- 32
2020-03-12 16:00:00 25.7 8 Noroeste -- -- 0 -- -- 32
2020-03-12 15:00:00 26.5 6 Oeste -- -- 0 -- -- 27
2020-03-12 14:00:00 26 7 Oeste -- -- 0 -- -- 31
2020-03-12 13:00:00 25.4 11 Sur -- -- 0 -- -- 30
2020-03-12 12:00:00 23.8 11 Sur -- -- 0 -- -- 33
2020-03-12 11:00:00 22.9 9 Sur -- -- 0 -- -- 33
2020-03-12 10:00:00 21.1 9 Sur -- -- 0 -- -- 35
2020-03-12 09:00:00 18.4 5 Sur -- -- 0 -- -- 38
2020-03-12 08:00:00 17.1 6 Sur -- -- 0 -- -- 38
2020-03-12 07:00:00 17 4 Oeste -- -- 0 -- -- 40
2020-03-12 06:00:00 18 4 Sur -- -- 0 -- -- 35
2020-03-12 05:00:00 18.2 9 Sudeste -- -- 0 -- -- 35
2020-03-12 04:00:00 18 6 Sur -- -- 0 -- -- 36
2020-03-12 03:00:00 18.4 8 Sur -- -- 0 -- -- 35
2020-03-12 02:00:00 18.9 4 Sudoeste -- -- 0 -- -- 33
2020-03-12 01:00:00 19.4 6 Sur -- -- 0 -- -- 32
2020-03-12 00:00:00 19.8 3 Sur -- -- 0 -- -- 31
2020-03-11 23:00:00 19.8 3 Sur -- -- 0 -- -- 31
2020-03-11 22:00:00 20.4 5 Sudeste -- -- 0 -- -- 30
2020-03-11 21:00:00 20.3 5 Sur -- -- 0 -- -- 30
2020-03-11 20:00:00 21.3 8 Sudeste -- -- 0 -- -- 31
2020-03-11 19:00:00 23.3 5 Sudeste -- -- 0 -- -- 29
2020-03-11 18:00:00 24.9 10 Sur -- -- 0 -- -- 29
2020-03-11 17:00:00 25.5 8 Sur -- -- 0 -- -- 28
2020-03-11 16:00:00 24.7 7 Sur -- -- 0 -- -- 30
2020-03-11 15:00:00 25.6 9 Sudeste -- -- 0 -- -- 29
2020-03-11 14:00:00 25.7 10 Sudeste -- -- 0 -- -- 28
2020-03-11 13:00:00 24.7 10 Sur -- -- 0 -- -- 30
2020-03-11 12:00:00 23.8 15 Sudeste -- -- 0 -- -- 31
2020-03-11 11:00:00 22.2 5 Sur -- -- 0 -- -- 37
2020-03-11 10:00:00 20.3 4 Norte -- -- 0 -- -- 43
2020-03-11 09:00:00 17.4 0 Calma -- -- 0 -- -- 46
2020-03-11 08:00:00 14.5 0 Calma -- -- 0 -- -- 51
2020-03-11 07:00:00 15 4 Sudeste -- -- 0 -- -- 49
2020-03-11 06:00:00 13.6 2 Sur -- -- 0 -- -- 53
2020-03-11 05:00:00 12.4 3 Nordeste -- -- 0 -- -- 60
2020-03-11 04:00:00 11.5 0 Calma -- -- 0 -- -- 64
2020-03-11 03:00:00 11.8 0 Calma -- -- 0 -- -- 63
2020-03-11 02:00:00 11.8 0 Calma -- -- 0 -- -- 65
2020-03-11 01:00:00 11.8 3 Este -- -- 0 -- -- 66
2020-03-11 00:00:00 12.2 0 Calma -- -- 0 -- -- 65
2020-03-10 23:00:00 12.9 2 Este -- -- 0 -- -- 62
2020-03-10 22:00:00 13.4 0 Calma -- -- 0 -- -- 62
2020-03-10 21:00:00 14.3 3 Este -- -- 0 -- -- 58
2020-03-10 20:00:00 15.6 3 Este -- -- 0 -- -- 55
2020-03-10 19:00:00 19 0 Calma -- -- 0 -- -- 48
2020-03-10 18:00:00 22.3 6 Oeste -- -- 0 -- -- 40
2020-03-10 17:00:00 23.5 5 Sur -- -- 0 -- -- 35
2020-03-10 16:00:00 23.6 7 Sudoeste -- -- 0 -- -- 34
2020-03-10 15:00:00 23.4 5 Sur -- -- 0 -- -- 33
2020-03-10 14:00:00 22.8 6 Sur -- -- 0 -- -- 33
2020-03-10 13:00:00 22.1 6 Sur -- -- 0 -- -- 33
2020-03-10 12:00:00 19.8 4 Sudoeste -- -- 0 -- -- 40
2020-03-10 11:00:00 18.1 3 Noroeste -- -- 0 -- -- 43
2020-03-10 10:00:00 15.9 2 Sudoeste -- -- 0 -- -- 42
2020-03-10 09:00:00 13.2 4 Norte -- -- 0 -- -- 47
2020-03-10 08:00:00 10.8 3 Norte -- -- 0 -- -- 55
2020-03-10 07:00:00 11.3 3 Nordeste -- -- 0 -- -- 53
2020-03-10 06:00:00 11.1 2 Nordeste -- -- 0 -- -- 53
2020-03-10 05:00:00 11.3 7 Norte -- -- 0 -- -- 52
2020-03-10 04:00:00 12.2 3 Nordeste -- -- 0 -- -- 45
2020-03-10 03:00:00 11.6 4 Nordeste -- -- 0 -- -- 50
2020-03-10 02:00:00 11.7 6 Nordeste -- -- 0 -- -- 54
2020-03-10 01:00:00 11.8 4 Este -- -- 0 -- -- 55
2020-03-10 00:00:00 12.9 6 Nordeste -- -- 0 -- -- 51
2020-03-09 23:00:00 12.5 6 Este -- -- 0 -- -- 55
2020-03-09 22:00:00 12.3 5 Este -- -- 0 -- -- 54
2020-03-09 21:00:00 13.2 4 Este -- -- 0 -- -- 50
2020-03-09 20:00:00 14.4 0 Calma -- -- 0 -- -- 48
2020-03-09 19:00:00 16.6 4 Noroeste -- -- 0 -- -- 38
2020-03-09 18:00:00 18.8 9 Noroeste -- -- 0 -- -- 36
2020-03-09 17:00:00 20.1 10 Noroeste -- -- 0 -- -- 32
2020-03-09 16:00:00 20.7 7 Noroeste -- -- 0 -- -- 26
2020-03-09 15:00:00 20.6 13 Noroeste -- -- 0 -- -- 25
2020-03-09 14:00:00 19.6 9 Norte -- -- 0 -- -- 18
2020-03-09 13:00:00 19.1 6 Norte -- -- 0 -- -- 25
2020-03-09 12:00:00 17.3 7 Nordeste -- -- 0 -- -- 29
2020-03-09 11:00:00 16 3 Norte -- -- 0 -- -- 46
2020-03-09 10:00:00 14.2 3 Noroeste -- -- 0 -- -- 52
2020-03-09 09:00:00 11.3 3 Este -- -- 0 -- -- 58
2020-03-09 08:00:00 8.8 0 Calma -- -- 0 -- -- 59
2020-03-09 07:00:00 8.2 5 Este -- -- 0 -- -- 58
2020-03-09 06:00:00 8.5 0 Calma -- -- 0 -- -- 57
2020-03-09 05:00:00 9.9 4 Norte -- -- 0 -- -- 52
2020-03-09 04:00:00 9.4 4 Este -- -- 0 -- -- 52
2020-03-09 03:00:00 10.4 4 Nordeste -- -- 0 -- -- 48
2020-03-09 02:00:00 10.9 5 Este -- -- 0 -- -- 45
2020-03-09 01:00:00 11.3 4 Este -- -- 0 -- -- 43
2020-03-09 00:00:00 12 4 Este -- -- 0 -- -- 46